Time;durP1;ratioP1;P1;durP2;ratioP2;P2;SDS_P1;SDS_P2;PMS_P1;PMS_P2;Temp;Humidity;BMP_temperature;BMP_pressure;BME280_temperature;BME280_humidity;BME280_pressure;Samples;Min_cycle;Max_cycle;Signal;HPM_P1;HPM_P2
2021/12/03 00:02:34;;;;;;;8.60;3.50;;;23.80;49.50;;;;;;213834;1314;22577;-52
2021/12/03 00:07:41;;;;;;;6.40;3.40;;;23.80;49.50;;;;;;213542;1320;23224;-55
2021/12/03 00:12:48;;;;;;;7.20;3.40;;;24.00;49.40;;;;;;213625;1319;25514;-58
2021/12/03 00:17:54;;;;;;;7.60;3.60;;;24.10;49.30;;;;;;213660;1320;22606;-53
2021/12/03 00:22:58;;;;;;;6.40;3.30;;;24.10;49.30;;;;;;213459;1322;22594;-54
2021/12/03 00:28:03;;;;;;;7.50;3.60;;;24.10;49.60;;;;;;213440;1321;22592;-55
2021/12/03 00:33:10;;;;;;;6.00;3.20;;;24.10;49.10;;;;;;213452;1321;22569;-54
2021/12/03 00:38:16;;;;;;;7.20;3.50;;;24.10;49.20;;;;;;213438;1322;25586;-55
2021/12/03 00:43:20;;;;;;;7.10;3.30;;;24.20;49.30;;;;;;213467;1322;22657;-54
2021/12/03 00:48:25;;;;;;;6.60;3.20;;;24.10;49.40;;;;;;213479;1315;24283;-56
2021/12/03 00:53:28;;;;;;;5.80;3.20;;;24.10;49.50;;;;;;213479;1313;22713;-52
2021/12/03 00:58:32;;;;;;;7.60;3.50;;;23.90;49.70;;;;;;213557;1313;22821;-56
2021/12/03 01:03:38;;;;;;;7.10;3.60;;;23.80;50.10;;;;;;213481;1316;24329;-54
2021/12/03 01:08:42;;;;;;;5.90;3.50;;;23.60;50.60;;;;;;213477;1322;22590;-55
2021/12/03 01:13:46;;;;;;;5.70;3.10;;;23.50;50.90;;;;;;213942;1320;22709;-55
2021/12/03 01:18:50;;;;;;;5.90;3.20;;;23.30;51.20;;;;;;213559;1311;22641;-54
2021/12/03 01:23:55;;;;;;;5.60;3.00;;;23.20;51.20;;;;;;213400;1321;26975;-56
2021/12/03 01:28:59;;;;;;;5.50;2.70;;;23.20;51.40;;;;;;213636;1321;23309;-54
2021/12/03 01:34:04;;;;;;;5.10;2.80;;;23.00;51.40;;;;;;213672;1318;22574;-57
2021/12/03 01:39:07;;;;;;;5.70;3.10;;;23.00;51.60;;;;;;213355;1313;22561;-55
2021/12/03 01:44:20;;;;;;;5.20;2.80;;;22.90;51.70;;;;;;213441;1315;23511;-58
2021/12/03 01:49:23;;;;;;;4.50;2.50;;;22.80;51.80;;;;;;213371;1318;22646;-55
2021/12/03 01:54:27;;;;;;;4.70;2.40;;;22.70;52.00;;;;;;213414;1321;22721;-56
2021/12/03 01:59:31;;;;;;;5.90;2.80;;;22.60;52.00;;;;;;213317;1313;24254;-55
2021/12/03 02:04:35;;;;;;;6.70;3.00;;;22.50;52.20;;;;;;213600;1312;24345;-55
2021/12/03 02:09:39;;;;;;;8.00;2.70;;;22.50;52.40;;;;;;213362;1313;23749;-55
2021/12/03 02:14:43;;;;;;;4.90;2.30;;;22.40;52.80;;;;;;213539;1320;25781;-54
2021/12/03 02:19:46;;;;;;;5.90;2.40;;;22.30;52.50;;;;;;213564;1319;24301;-54
2021/12/03 02:24:50;;;;;;;5.20;2.70;;;22.30;52.60;;;;;;213381;1322;22565;-55
2021/12/03 02:29:54;;;;;;;4.40;2.60;;;22.20;52.60;;;;;;213623;1320;22586;-55
2021/12/03 02:34:57;;;;;;;4.30;2.30;;;22.20;52.50;;;;;;213612;1319;22768;-54
2021/12/03 02:40:05;;;;;;;5.50;2.40;;;22.40;53.00;;;;;;213466;1321;24244;-55
2021/12/03 02:45:11;;;;;;;4.90;2.40;;;22.90;51.60;;;;;;213796;1320;22603;-55
2021/12/03 02:50:16;;;;;;;5.00;2.40;;;23.20;50.60;;;;;;213673;1322;24339;-52
2021/12/03 02:55:22;;;;;;;4.70;2.20;;;23.40;50.10;;;;;;213459;1321;25038;-53
2021/12/03 03:00:27;;;;;;;4.30;2.00;;;23.50;49.70;;;;;;213770;1319;22612;-56
2021/12/03 03:05:31;;;;;;;6.00;2.20;;;23.60;49.30;;;;;;213676;1321;24343;-57
2021/12/03 03:10:41;;;;;;;4.80;2.10;;;23.70;49.30;;;;;;213712;1317;25374;-55
2021/12/03 03:15:45;;;;;;;4.60;2.20;;;23.70;49.40;;;;;;213634;1321;22755;-54
2021/12/03 03:20:50;;;;;;;3.50;2.20;;;23.70;48.90;;;;;;213657;1321;22572;-53
2021/12/03 03:25:54;;;;;;;4.60;2.10;;;23.60;48.90;;;;;;213461;1322;22674;-53
2021/12/03 03:31:00;;;;;;;4.00;2.60;;;23.70;48.70;;;;;;213575;1321;22593;-53
2021/12/03 03:36:08;;;;;;;4.30;2.10;;;23.80;48.60;;;;;;213738;1320;26239;-53
2021/12/03 03:41:26;;;;;;;4.40;2.00;;;23.80;48.50;;;;;;213830;1320;24996;-56
2021/12/03 03:46:35;;;;;;;3.30;1.70;;;23.80;48.40;;;;;;213737;1320;24424;-52
2021/12/03 03:51:40;;;;;;;4.00;2.20;;;23.80;48.40;;;;;;213475;1320;22827;-54
2021/12/03 03:56:46;;;;;;;4.00;2.30;;;23.80;48.60;;;;;;213599;1320;26946;-55
2021/12/03 04:01:51;;;;;;;3.80;2.00;;;23.80;48.30;;;;;;213588;1319;24468;-52
2021/12/03 04:06:55;;;;;;;4.40;2.00;;;23.80;48.50;;;;;;213631;1313;22773;-53
2021/12/03 04:11:58;;;;;;;3.50;1.80;;;23.70;48.40;;;;;;213561;1318;22636;-56
2021/12/03 04:17:02;;;;;;;3.70;1.80;;;23.80;48.40;;;;;;213348;1318;24401;-53
2021/12/03 04:22:06;;;;;;;4.10;1.80;;;23.80;48.10;;;;;;213658;1319;23086;-56
2021/12/03 04:27:10;;;;;;;3.40;1.90;;;23.90;48.00;;;;;;213507;1319;22633;-56
2021/12/03 04:32:14;;;;;;;4.30;2.00;;;24.00;47.80;;;;;;213534;1317;22571;-55
2021/12/03 04:37:18;;;;;;;4.80;1.80;;;24.00;47.60;;;;;;213675;1316;22566;-54
2021/12/03 04:42:22;;;;;;;4.00;1.80;;;24.10;47.50;;;;;;213628;1320;22565;-55
2021/12/03 04:47:26;;;;;;;5.10;1.80;;;24.10;47.40;;;;;;213317;1313;22596;-57
2021/12/03 04:52:29;;;;;;;3.30;1.80;;;24.10;47.20;;;;;;213343;1313;22830;-54
2021/12/03 04:57:33;;;;;;;3.40;1.90;;;24.10;47.40;;;;;;213334;1313;26821;-55
2021/12/03 05:02:37;;;;;;;3.70;2.00;;;24.10;47.20;;;;;;213416;1319;25649;-54
2021/12/03 05:12:45;;;;;;;3.60;1.90;;;24.10;47.20;;;;;;213406;1313;24309;-57
2021/12/03 05:18:07;;;;;;;3.90;1.80;;;24.10;47.30;;;;;;213453;1312;25674;-56
2021/12/03 05:23:13;;;;;;;6.10;1.70;;;24.00;47.20;;;;;;213592;1313;22633;-55
2021/12/03 05:28:18;;;;;;;3.00;1.60;;;24.00;47.20;;;;;;213371;1315;22594;-56
2021/12/03 05:33:25;;;;;;;3.00;1.70;;;24.10;47.10;;;;;;213467;1316;22609;-55
2021/12/03 05:38:29;;;;;;;7.40;2.10;;;24.10;47.00;;;;;;213534;1321;24266;-54
2021/12/03 05:43:32;;;;;;;3.20;1.60;;;24.00;47.20;;;;;;213577;1315;22724;-53
2021/12/03 05:48:36;;;;;;;3.20;1.90;;;24.10;46.80;;;;;;213169;1322;22573;-55
2021/12/03 05:53:39;;;;;;;3.20;1.70;;;24.10;47.00;;;;;;213427;1323;22630;-55
2021/12/03 05:58:44;;;;;;;2.80;1.50;;;24.00;47.00;;;;;;213324;1315;22615;-56
2021/12/03 06:03:47;;;;;;;4.00;1.70;;;24.10;47.20;;;;;;213381;1315;25495;-56
2021/12/03 06:08:51;;;;;;;3.90;1.60;;;24.10;46.90;;;;;;213270;1315;22607;-58
2021/12/03 06:13:55;;;;;;;3.10;1.90;;;24.30;46.60;;;;;;213380;1314;22650;-56
2021/12/03 06:18:58;;;;;;;4.80;2.10;;;24.20;46.50;;;;;;213327;1314;22574;-54
2021/12/03 06:24:02;;;;;;;3.20;1.80;;;24.00;46.60;;;;;;213385;1321;23522;-56
2021/12/03 06:29:10;;;;;;;2.30;1.50;;;23.90;46.90;;;;;;213528;1320;24747;-56
2021/12/03 06:34:14;;;;;;;3.30;1.60;;;23.80;47.10;;;;;;213031;1316;25555;-53
2021/12/03 06:39:18;;;;;;;3.20;1.60;;;23.60;47.30;;;;;;213439;1317;22547;-54
2021/12/03 06:44:23;;;;;;;4.60;1.60;;;23.50;47.70;;;;;;213475;1315;23079;-54
2021/12/03 06:49:28;;;;;;;3.10;1.60;;;23.50;47.80;;;;;;213686;1315;24442;-56
2021/12/03 06:54:34;;;;;;;9.30;2.40;;;23.30;48.10;;;;;;213536;1315;22612;-56
2021/12/03 06:59:38;;;;;;;7.00;2.10;;;23.30;49.00;;;;;;213348;1315;26729;-52
2021/12/03 07:04:44;;;;;;;5.30;1.90;;;23.20;49.60;;;;;;213437;1315;24301;-56
2021/12/03 07:09:48;;;;;;;6.30;1.90;;;23.10;49.50;;;;;;213684;1314;22609;-53
2021/12/03 07:14:53;;;;;;;5.90;2.10;;;23.00;49.70;;;;;;213626;1321;25391;-53
2021/12/03 07:19:58;;;;;;;9.70;2.40;;;22.90;50.70;;;;;;213289;1316;380316;-54
2021/12/03 07:25:05;;;;;;;5.60;2.20;;;22.80;50.30;;;;;;213468;1315;24303;-56
2021/12/03 07:30:20;;;;;;;3.40;1.70;;;22.80;50.50;;;;;;213046;1313;24264;-56
2021/12/03 07:35:24;;;;;;;5.60;1.90;;;22.70;50.70;;;;;;213332;1312;22617;-55
2021/12/03 07:40:30;;;;;;;7.00;1.90;;;22.70;51.70;;;;;;212827;1310;24241;-56
2021/12/03 07:45:34;;;;;;;7.70;2.10;;;22.60;50.90;;;;;;212983;1312;25384;-54
2021/12/03 07:50:40;;;;;;;13.30;2.60;;;22.70;51.50;;;;;;213291;1312;23039;-55
2021/12/03 07:55:45;;;;;;;4.40;2.10;;;22.70;51.90;;;;;;213321;1312;22797;-55
2021/12/03 08:00:49;;;;;;;8.70;2.30;;;22.60;51.40;;;;;;213223;1312;25332;-52
2021/12/03 08:05:53;;;;;;;8.60;1.80;;;22.40;51.90;;;;;;213423;1312;22884;-54
2021/12/03 08:10:57;;;;;;;6.30;1.90;;;22.30;52.30;;;;;;213209;1313;22981;-53
2021/12/03 08:16:03;;;;;;;9.10;1.70;;;22.30;52.10;;;;;;213053;1312;24293;-55
2021/12/03 08:21:06;;;;;;;8.20;2.00;;;22.30;51.90;;;;;;213413;1312;22573;-55
2021/12/03 08:26:15;;;;;;;8.40;2.10;;;22.40;51.70;;;;;;213306;1312;24394;-55
2021/12/03 08:31:22;;;;;;;9.20;2.20;;;22.40;52.10;;;;;;213322;1312;25499;-54
2021/12/03 08:36:25;;;;;;;7.70;2.10;;;22.30;52.00;;;;;;213503;1312;24261;-56
2021/12/03 08:41:30;;;;;;;7.80;1.90;;;22.20;51.80;;;;;;213450;1312;24319;-52
2021/12/03 08:46:36;;;;;;;4.80;1.90;;;22.20;51.80;;;;;;213476;1312;25394;-55
2021/12/03 08:56:49;;;;;;;8.70;2.50;;;22.00;52.30;;;;;;213384;1312;22733;-55
2021/12/03 09:01:52;;;;;;;4.50;2.00;;;21.90;51.70;;;;;;213331;1312;22913;-53
2021/12/03 09:06:57;;;;;;;4.90;1.70;;;22.00;52.00;;;;;;213459;1312;25454;-54
2021/12/03 09:12:02;;;;;;;5.90;1.90;;;22.00;51.60;;;;;;213455;1313;22614;-57
2021/12/03 09:22:41;;;;;;;7.20;1.90;;;22.00;51.70;;;;;;213326;1312;22588;-53
2021/12/03 09:27:51;;;;;;;5.60;1.90;;;22.20;51.20;;;;;;213395;1312;24260;-55
2021/12/03 09:32:58;;;;;;;4.10;1.70;;;22.40;50.90;;;;;;213420;1312;23837;-55
2021/12/03 09:38:02;;;;;;;4.40;1.50;;;22.40;51.00;;;;;;213399;1312;23091;-54
2021/12/03 09:43:10;;;;;;;7.20;2.50;;;22.40;50.50;;;;;;213505;1312;25335;-55
2021/12/03 09:48:30;;;;;;;4.60;1.80;;;22.60;50.40;;;;;;213440;1315;25467;-55
2021/12/03 09:59:34;;;;;;;4.40;1.90;;;22.60;50.50;;;;;;213414;1314;24886;-54
2021/12/03 10:04:54;;;;;;;3.90;1.80;;;22.80;50.00;;;;;;213390;1312;22561;-55
2021/12/03 10:15:38;;;;;;;3.80;1.50;;;22.90;49.50;;;;;;213531;1312;22849;-55
2021/12/03 14:44:33;;;;;;;2.30;1.30;;;23.10;47.50;;;;;;213460;1312;22582;-54
2021/12/03 14:55:29;;;;;;;2.30;1.50;;;23.20;46.80;;;;;;213500;1312;23165;-56
2021/12/03 15:06:40;;;;;;;2.70;1.50;;;23.40;46.50;;;;;;213696;1320;22574;-55
2021/12/03 15:12:04;;;;;;;2.20;1.20;;;23.40;46.30;;;;;;213818;1318;23913;-56
2021/12/03 15:22:50;;;;;;;2.70;1.50;;;23.50;46.30;;;;;;213473;1317;307811;-56
2021/12/03 15:28:13;;;;;;;2.70;1.50;;;23.40;46.10;;;;;;213492;1319;24355;-54
2021/12/03 15:39:10;;;;;;;2.70;1.50;;;23.40;46.10;;;;;;213382;1318;22587;-53
2021/12/03 16:56:04;;;;;;;8.10;3.30;;;23.90;43.30;;;;;;213689;1312;24320;-57
2021/12/03 17:07:32;;;;;;;5.60;3.30;;;23.80;42.80;;;;;;214446;1316;22894;-56
2021/12/03 17:12:39;;;;;;;7.20;3.30;;;23.80;42.70;;;;;;214576;1312;22746;-56
2021/12/03 17:54:55;;;;;;;;;;;;;;;;;;;;;
2021/12/03 18:00:06;;;;;;;11.60;3.90;;;23.80;42.40;;;;;;214379;1315;24046;-57
2021/12/03 18:10:33;;;;;;;10.70;3.30;;;23.60;43.30;;;;;;213487;1315;24198;-55
2021/12/03 18:48:54;;;;;;;7.60;3.80;;;23.90;43.50;;;;;;213820;1318;22737;-56
2021/12/03 18:59:27;;;;;;;6.50;3.30;;;23.80;43.30;;;;;;213885;1312;24224;-56
2021/12/03 19:05:17;;;;;;;11.30;3.60;;;23.90;43.20;;;;;;213584;1320;24282;-57
2021/12/03 19:10:27;;;;;;;7.80;3.90;;;23.90;43.80;;;;;;213224;1315;25555;-58
2021/12/03 19:15:32;;;;;;;14.70;4.50;;;23.90;44.50;;;;;;213655;1320;22578;-59
2021/12/03 19:20:42;;;;;;;10.90;4.40;;;23.80;45.90;;;;;;213720;1313;22640;-54
2021/12/03 19:26:20;;;;;;;13.00;4.00;;;23.60;47.50;;;;;;213595;1316;23993;-56
2021/12/03 19:31:24;;;;;;;9.80;3.70;;;23.50;49.10;;;;;;213535;1318;22600;-54
2021/12/03 19:36:43;;;;;;;8.80;3.80;;;23.30;49.50;;;;;;213640;1318;22624;-53
2021/12/03 19:42:04;;;;;;;7.10;4.30;;;23.20;50.20;;;;;;213366;1315;22655;-53
2021/12/03 19:47:12;;;;;;;12.50;4.50;;;23.00;50.60;;;;;;213703;1313;23034;-53
2021/12/03 19:52:26;;;;;;;7.00;3.70;;;22.90;51.00;;;;;;213708;1312;22801;-55
2021/12/03 19:57:37;;;;;;;7.90;3.60;;;22.70;51.50;;;;;;213670;1312;24630;-54
2021/12/03 20:02:43;;;;;;;7.20;3.90;;;22.70;51.10;;;;;;213476;1312;22577;-53
2021/12/03 20:07:51;;;;;;;5.90;3.70;;;22.60;50.50;;;;;;213650;1312;23917;-55
2021/12/03 20:13:22;;;;;;;10.60;3.80;;;22.50;50.90;;;;;;213154;1313;24254;-56
2021/12/03 20:19:15;;;;;;;12.60;4.20;;;22.40;50.00;;;;;;213680;1312;22588;-57
2021/12/03 20:29:56;;;;;;;12.60;3.80;;;22.40;49.70;;;;;;213698;1313;25361;-56
2021/12/03 20:35:25;;;;;;;10.60;3.70;;;22.30;49.30;;;;;;213553;1312;22595;-61
2021/12/03 20:40:33;;;;;;;6.60;3.60;;;22.30;49.50;;;;;;213780;1312;22584;-57
2021/12/03 20:51:18;;;;;;;9.10;3.20;;;22.20;48.50;;;;;;213582;1312;25657;-57
2021/12/03 21:13:08;;;;;;;7.30;2.70;;;22.00;48.70;;;;;;213349;1319;25342;-57
2021/12/03 21:23:31;;;;;;;6.50;2.80;;;22.10;48.40;;;;;;213461;1319;22674;-55
2021/12/03 21:40:24;;;;;;;14.00;3.30;;;23.20;47.10;;;;;;213292;1312;25874;-55
2021/12/03 21:45:46;;;;;;;7.80;2.60;;;23.20;47.30;;;;;;213241;1313;23108;-52
2021/12/03 21:51:23;;;;;;;6.80;3.10;;;22.80;48.10;;;;;;213381;1318;24251;-56
2021/12/03 21:57:24;;;;;;;;;;;;;;;;;;;;;
2021/12/03 22:02:46;;;;;;;7.40;2.80;;;22.80;48.40;;;;;;212505;1326;22874;-51
2021/12/03 22:07:58;;;;;;;5.50;2.50;;;22.70;48.70;;;;;;212372;1321;22593;-54
2021/12/03 22:13:23;;;;;;;;;;;;;;;;;;;;;
2021/12/03 22:18:33;;;;;;;6.00;3.00;;;22.90;48.10;;;;;;212572;1318;22765;-54
2021/12/03 22:24:05;;;;;;;8.00;3.30;;;23.20;46.50;;;;;;212353;1324;22714;-55
2021/12/03 22:30:19;;;;;;;6.80;2.90;;;23.40;45.90;;;;;;212775;1321;22654;-55
2021/12/03 22:35:43;;;;;;;9.50;2.70;;;23.50;45.80;;;;;;213117;1315;22595;-54
2021/12/03 22:41:05;;;;;;;6.60;3.00;;;23.50;46.10;;;;;;213226;1321;22579;-55
2021/12/03 22:46:40;;;;;;;8.70;2.80;;;23.60;46.30;;;;;;213408;1315;24421;-53
2021/12/03 22:56:54;;;;;;;8.60;3.00;;;23.70;46.40;;;;;;213274;1322;22581;-54
2021/12/03 23:02:04;;;;;;;11.30;2.60;;;23.70;46.40;;;;;;213300;1317;22589;-54
2021/12/03 23:07:17;;;;;;;6.90;3.00;;;23.80;46.20;;;;;;213438;1320;25260;-53
2021/12/03 23:12:27;;;;;;;4.20;2.30;;;23.80;46.10;;;;;;213156;1321;25966;-54
2021/12/03 23:17:43;;;;;;;8.10;2.60;;;23.70;46.20;;;;;;213409;1321;22605;-53
2021/12/03 23:22:49;;;;;;;4.30;2.10;;;23.40;47.20;;;;;;213131;1318;22798;-55
2021/12/03 23:27:54;;;;;;;7.00;2.70;;;23.30;47.50;;;;;;213350;1315;24280;-56
2021/12/03 23:32:59;;;;;;;4.30;2.00;;;23.20;47.70;;;;;;213331;1321;22784;-53
2021/12/03 23:38:06;;;;;;;5.00;2.00;;;23.10;47.70;;;;;;213314;1315;22741;-56
2021/12/03 23:43:10;;;;;;;4.10;2.10;;;23.20;47.60;;;;;;213323;1321;22663;-57
2021/12/03 23:48:17;;;;;;;5.90;2.70;;;23.30;47.50;;;;;;213262;1316;22834;-56
2021/12/03 23:53:21;;;;;;;3.90;2.00;;;23.40;47.60;;;;;;213276;1315;25442;-55
2021/12/03 23:58:26;;;;;;;4.10;2.30;;;23.50;47.30;;;;;;213427;1316;26581;-55
